Weather History for KAEJ - April, 2014

Change the Weather History Date:

Thursday, April 24, 2014

  Actual Average (KLXV) Record (KLXV)
Temperature  
Mean Temperature 46 °F -  
Max Temperature 60 °F 46 °F 63 °F (2012)
Min Temperature 31 °F 21 °F 1 °F (2013)
Degree Days  
Heating Degree Days 20 32  
Month to date heating degree days 836  
Since 1 July heating degree days 9819  
Cooling Degree Days 0 0  
Month to date cooling degree days 0  
Year to date cooling degree days 0  
Moisture  
Dew Point 6 °F    
Average Humidity 22    
Maximum Humidity 40    
Minimum Humidity 11    
Precipitation  
Precipitation 0.00 in 0.04 in 0.51 in (2003)
Month to date precipitation 0.86  
Year to date precipitation 3.12  
Sea Level Pressure  
Sea Level Pressure 30.03 in    
Wind  
Wind Speed 12 mph (WNW)    
Max Wind Speed 24 mph    
Max Gust Speed 37 mph    
Visibility 10 miles    
Events      
T = Trace of Precipitation, MM = Missing Value Source: NWS Daily Summary

Daily Weather History Graph

Daily Weather History Graph

Search for Another Location

Airport or City:

Trip Planner

Search our weather history database for the weather conditions in past years. The results will help you decide how hot, cold, wet, or windy it might be!

Date:

Astronomy

Apr. 24, 2014 Rise Set
Actual Time 6:15 AM MDT 7:50 PM MDT
Civil Twilight 5:47 AM MDT 8:18 PM MDT
Nautical Twilight 5:13 AM MDT 8:52 PM MDT
Astronomical Twilight 4:37 AM MDT 9:28 PM MDT
Moon 3:25 AM MDT (4/24) 3:11 PM MDT (4/24)
Length of Visible Light 14h 31m
Length of Day
13h 34m
Waning Crescent, 24% of the Moon is Illuminated
Apr 24
Waning Crescent
Apr 29
New
May 6
First Quarter
May 14
Full
May 21
Last Quarter

Hourly Weather History & Observations

Time (MDT) Temp. Windchill Dew Point Humidity Pressure Visibility Wind Dir Wind Speed Gust Speed Precip Events Conditions
12:15 AM 35.8 °F 27.8 °F 13.3 °F 40% 29.97 in 10.0 mi NW 11.5 mph 16.1 mph N/A   Scattered Clouds
12:35 AM 35.8 °F 27.3 °F 9.9 °F 34% 29.98 in 10.0 mi NW 12.7 mph - N/A   Clear
12:55 AM 35.6 °F 28.0 °F 8.2 °F 32% 29.99 in 10.0 mi WNW 10.4 mph - N/A   Clear
1:15 AM 33.8 °F 27.7 °F 8.6 °F 35% 29.99 in 10.0 mi WSW 6.9 mph - N/A   Clear
1:35 AM 33.4 °F 30.4 °F 9.5 °F 37% 30.00 in 10.0 mi NW 3.5 mph - N/A   Clear
1:55 AM 34.2 °F 29.0 °F 9.3 °F 36% 30.00 in 10.0 mi North 5.8 mph 11.5 mph N/A   Clear
2:15 AM 32.7 °F 28.3 °F 9.1 °F 37% 30.00 in 10.0 mi NNW 4.6 mph - N/A   Clear
2:35 AM 33.3 °F 27.1 °F 9.0 °F 36% 30.01 in 10.0 mi NW 6.9 mph - N/A   Clear
2:55 AM 32.4 °F 25.3 °F 9.3 °F 38% 30.01 in 10.0 mi WNW 8.1 mph - N/A   Clear
3:15 AM 32.9 °F 25.3 °F 9.3 °F 37% 30.01 in 10.0 mi NW 9.2 mph 18.4 mph N/A   Clear
3:35 AM 32.9 °F 22.0 °F 8.6 °F 36% 30.01 in 10.0 mi NNW 17.3 mph 21.9 mph N/A   Clear
3:55 AM 32.2 °F 22.3 °F 9.1 °F 38% 30.02 in 10.0 mi NNW 13.8 mph - N/A   Clear
4:15 AM 32.2 °F 22.3 °F 8.6 °F 37% 30.03 in 10.0 mi NNW 13.8 mph 18.4 mph N/A   Clear
4:35 AM 32.0 °F 20.5 °F 8.6 °F 38% 30.03 in 10.0 mi NNW 18.4 mph 21.9 mph N/A   Clear
4:55 AM 32.0 °F 21.2 °F 8.1 °F 37% 30.03 in 10.0 mi NNW 16.1 mph - N/A   Clear
5:15 AM 32.2 °F 19.7 °F 7.5 °F 36% 30.03 in 10.0 mi NNW 21.9 mph 26.5 mph N/A   Clear
5:35 AM 32.0 °F 24.2 °F 7.5 °F 36% 30.04 in 10.0 mi NNW 9.2 mph 20.7 mph N/A   Clear
5:55 AM 32.0 °F 23.0 °F 7.7 °F 36% 30.03 in 10.0 mi NNW 11.5 mph 18.4 mph N/A   Clear
6:15 AM 31.6 °F 21.2 °F 7.3 °F 36% 30.04 in 10.0 mi NNW 15.0 mph 19.6 mph N/A   Clear
6:35 AM 31.6 °F 20.7 °F 6.4 °F 35% 30.05 in 10.0 mi NNW 16.1 mph 21.9 mph N/A   Clear
6:55 AM 33.1 °F 23.4 °F 5.9 °F 32% 30.05 in 10.0 mi NNW 13.8 mph 19.6 mph N/A   Clear
7:15 AM 34.5 °F 24.5 °F 6.1 °F 30% 30.07 in 10.0 mi NNW 16.1 mph 21.9 mph N/A   Clear
7:35 AM 35.6 °F 25.9 °F 5.7 °F 29% 30.07 in 10.0 mi NNW 16.1 mph 20.7 mph N/A   Clear
7:55 AM 37.4 °F 28.5 °F 5.2 °F 26% 30.07 in 10.0 mi NNW 15.0 mph 20.7 mph N/A   Clear
8:15 AM 38.3 °F 29.3 °F 4.3 °F 24% 30.07 in 10.0 mi NNW 16.1 mph 24.2 mph N/A   Clear
8:35 AM 39.4 °F 31.4 °F 3.2 °F 22% 30.07 in 10.0 mi NNW 13.8 mph - N/A   Clear
8:55 AM 41.4 °F 33.6 °F 3.7 °F 21% 30.08 in 10.0 mi NNW 15.0 mph 19.6 mph N/A   Clear
9:15 AM 42.3 °F 36.3 °F 3.4 °F 20% 30.08 in 10.0 mi NNW 10.4 mph - N/A   Clear
9:35 AM 44.6 °F 39.7 °F 2.1 °F 17% 30.08 in 10.0 mi WNW 9.2 mph 16.1 mph N/A   Clear
9:55 AM 46.0 °F 42.5 °F 2.5 °F 17% 30.08 in 10.0 mi North 6.9 mph - N/A   Clear
10:15 AM 45.5 °F 41.8 °F 5.2 °F 19% 30.09 in 10.0 mi South 6.9 mph - N/A   Clear
10:35 AM 45.5 °F 44.2 °F 4.5 °F 19% 30.08 in 10.0 mi ESE 3.5 mph - N/A   Clear
10:55 AM 45.9 °F 43.6 °F 4.6 °F 18% 30.07 in 10.0 mi East 4.6 mph - N/A   Clear
11:15 AM 48.4 °F - 4.6 °F 17% 30.07 in 10.0 mi SE 8.1 mph - N/A   Clear
11:35 AM 49.5 °F - 3.9 °F 16% 30.06 in 10.0 mi East 6.9 mph - N/A   Clear
11:55 AM 50.2 °F - 3.6 °F 15% 30.05 in 10.0 mi North 5.8 mph - N/A   Clear
12:15 PM 53.4 °F - 3.2 °F 13% 30.04 in 10.0 mi SSW 3.5 mph - N/A   Clear
12:35 PM 54.0 °F - 2.8 °F 13% 30.03 in 10.0 mi NW 9.2 mph 16.1 mph N/A   Clear
12:55 PM 57.4 °F - 2.5 °F 11% 30.03 in 10.0 mi WSW 11.5 mph 26.5 mph N/A   Clear
1:15 PM 57.6 °F - 2.8 °F 11% 30.02 in 10.0 mi WSW 15.0 mph 25.3 mph N/A   Clear
1:35 PM 58.1 °F - 2.7 °F 11% 30.01 in 10.0 mi SSW 4.6 mph 23.0 mph N/A   Clear
1:55 PM 59.4 °F - 3.9 °F 11% 30.01 in 10.0 mi WNW 16.1 mph 26.5 mph N/A   Clear
2:15 PM 59.2 °F - 4.8 °F 11% 30.01 in 10.0 mi West 6.9 mph 25.3 mph N/A   Clear
2:35 PM 59.4 °F - 5.5 °F 12% 30.01 in 10.0 mi WSW 17.3 mph 35.7 mph N/A   Clear
2:55 PM 59.5 °F - 6.1 °F 12% 30.00 in 10.0 mi SW 17.3 mph 27.6 mph N/A   Clear
3:15 PM 59.7 °F - 6.1 °F 12% 30.00 in 10.0 mi WSW 19.6 mph 29.9 mph N/A   Clear
3:35 PM 59.7 °F - 6.3 °F 12% 30.00 in 10.0 mi West 18.4 mph 35.7 mph N/A   Clear
3:55 PM 59.2 °F - 6.1 °F 12% 29.99 in 10.0 mi WSW 21.9 mph 32.2 mph N/A   Clear
4:15 PM 59.9 °F - 6.4 °F 12% 29.99 in 10.0 mi WSW 20.7 mph 36.8 mph N/A   Clear
4:35 PM 59.9 °F - 5.7 °F 12% 29.99 in 10.0 mi West 20.7 mph 34.5 mph N/A   Clear
4:55 PM 60.1 °F - 5.7 °F 11% 30.00 in 10.0 mi WSW 19.6 mph 29.9 mph N/A   Scattered Clouds
5:15 PM 58.8 °F - 5.2 °F 12% 30.00 in 10.0 mi WSW 23.0 mph 36.8 mph N/A   Clear
5:35 PM 57.4 °F - 4.3 °F 12% 30.00 in 10.0 mi WSW 20.7 mph 27.6 mph N/A   Clear
5:55 PM 56.7 °F - 3.9 °F 12% 30.00 in 10.0 mi West 20.7 mph 28.8 mph N/A   Clear
6:15 PM 55.4 °F - 4.5 °F 13% 30.00 in 10.0 mi WSW 24.2 mph 36.8 mph N/A   Clear
6:35 PM 54.5 °F - 4.8 °F 13% 30.01 in 10.0 mi West 15.0 mph 25.3 mph N/A   Clear
6:55 PM 54.1 °F - 5.0 °F 14% 30.02 in 10.0 mi WSW 15.0 mph 21.9 mph N/A   Clear
7:15 PM 52.0 °F - 4.5 °F 15% 30.03 in 10.0 mi West 11.5 mph 20.7 mph N/A   Clear
7:35 PM 50.2 °F - 6.6 °F 17% 30.04 in 10.0 mi WNW 8.1 mph - N/A   Clear
7:55 PM 49.1 °F - 6.6 °F 18% 30.04 in 10.0 mi WNW 13.8 mph 18.4 mph N/A   Clear
8:15 PM 46.6 °F - 7.5 °F 20% 30.05 in 10.0 mi West 8.1 mph - N/A   Clear
8:35 PM 47.8 °F - 6.6 °F 19% 30.05 in 10.0 mi NW 11.5 mph - N/A   Clear
8:55 PM 47.5 °F - 6.6 °F 19% 30.05 in 10.0 mi WNW 10.4 mph - N/A   Clear
9:15 PM 45.3 °F 42.3 °F 7.3 °F 21% 30.06 in 10.0 mi WNW 5.8 mph - N/A   Clear
9:35 PM 45.9 °F 43.6 °F 7.3 °F 21% 30.07 in 10.0 mi West 4.6 mph - N/A   Clear
9:55 PM 47.1 °F - 6.8 °F 19% 30.07 in 10.0 mi West 4.6 mph - N/A   Clear
10:15 PM 45.7 °F 44.4 °F 7.2 °F 21% 30.07 in 10.0 mi NW 3.5 mph - N/A   Clear
10:35 PM 45.5 °F 41.8 °F 7.3 °F 21% 30.07 in 10.0 mi West 6.9 mph - N/A   Clear
10:55 PM 45.3 °F 38.4 °F 7.5 °F 21% 30.07 in 10.0 mi West 16.1 mph - N/A   Clear
11:15 PM 45.7 °F 39.5 °F 7.5 °F 21% 30.07 in 10.0 mi WSW 13.8 mph 20.7 mph N/A   Clear
11:35 PM 43.3 °F 39.9 °F 7.7 °F 23% 30.07 in 10.0 mi West 5.8 mph - N/A   Clear
11:55 PM 44.8 °F 41.6 °F 7.5 °F 22% 30.07 in 10.0 mi West 5.8 mph - N/A   Clear